Time;durP1;ratioP1;P1;durP2;ratioP2;P2;SDS_P1;SDS_P2;PMS_P1;PMS_P2;Temp;Humidity;BMP_temperature;BMP_pressure;BME280_temperature;BME280_humidity;BME280_pressure;Samples;Min_cycle;Max_cycle;Signal;HPM_P1;HPM_P2
2022/03/19 00:00:59;;;;;;;25.10;17.45;;;7.40;43.40;;;;;;5051191;28;20214;-63
2022/03/19 00:03:26;;;;;;;23.42;16.98;;;7.40;43.50;;;;;;5050576;28;20263;-64
2022/03/19 00:05:53;;;;;;;23.08;17.77;;;7.30;43.70;;;;;;5051085;28;20221;-65
2022/03/19 00:08:20;;;;;;;27.73;19.75;;;7.30;43.70;;;;;;5051918;28;21552;-63
2022/03/19 00:10:47;;;;;;;23.02;17.60;;;7.30;43.90;;;;;;5053128;28;20591;-64
2022/03/19 00:13:14;;;;;;;28.88;17.98;;;7.30;44.00;;;;;;5047935;28;20237;-65
2022/03/19 00:15:42;;;;;;;22.65;18.65;;;7.30;44.30;;;;;;5050548;28;20197;-64
2022/03/19 00:18:10;;;;;;;26.70;16.70;;;7.30;44.40;;;;;;5050917;28;20190;-64
2022/03/19 00:20:38;;;;;;;25.17;17.30;;;7.20;44.50;;;;;;5050052;28;20630;-65
2022/03/19 00:23:06;;;;;;;25.63;18.23;;;7.20;44.60;;;;;;5052332;28;20183;-64
2022/03/19 00:25:33;;;;;;;23.13;16.45;;;7.20;44.80;;;;;;5052730;28;20532;-64
2022/03/19 00:28:00;;;;;;;24.08;16.20;;;7.20;44.90;;;;;;5052769;28;20191;-64
2022/03/19 00:30:27;;;;;;;30.52;19.27;;;7.10;45.00;;;;;;5052542;28;20183;-63
2022/03/19 00:32:54;;;;;;;24.13;18.25;;;7.10;45.40;;;;;;5052630;28;20715;-64
2022/03/19 00:35:23;;;;;;;27.90;17.63;;;7.00;45.30;;;;;;5052399;28;20603;-64
2022/03/19 00:37:51;;;;;;;27.33;17.63;;;7.00;45.50;;;;;;5052788;28;20236;-63
2022/03/19 00:40:20;;;;;;;23.00;17.45;;;6.90;45.60;;;;;;5052733;28;20578;-63
2022/03/19 00:42:48;;;;;;;28.08;19.10;;;6.90;45.80;;;;;;5052540;28;20218;-64
2022/03/19 00:45:16;;;;;;;24.98;18.85;;;6.90;45.90;;;;;;5052653;28;20186;-63
2022/03/19 00:47:43;;;;;;;26.30;17.52;;;6.90;46.00;;;;;;5052589;28;20194;-64
2022/03/19 00:50:11;;;;;;;25.10;16.95;;;6.80;46.10;;;;;;5052768;28;20710;-64
2022/03/19 00:52:39;;;;;;;22.35;16.63;;;6.80;46.20;;;;;;5052440;28;20198;-63
2022/03/19 00:55:08;;;;;;;27.73;18.50;;;6.80;46.30;;;;;;5052542;28;20240;-63
2022/03/19 00:57:40;;;;;;;24.40;17.63;;;6.80;46.30;;;;;;5052465;28;20187;-64
2022/03/19 01:00:09;;;;;;;28.65;19.23;;;6.70;46.40;;;;;;5052494;28;20687;-64
2022/03/19 01:02:36;;;;;;;27.52;20.13;;;6.70;46.90;;;;;;5056042;28;20290;-63
2022/03/19 01:05:04;;;;;;;24.90;17.90;;;6.60;46.80;;;;;;5056539;28;20248;-64
2022/03/19 01:07:31;;;;;;;28.23;19.33;;;6.60;46.90;;;;;;5056474;28;20547;-65
2022/03/19 01:09:59;;;;;;;25.63;19.40;;;6.60;47.00;;;;;;5056449;28;20190;-63
2022/03/19 01:12:26;;;;;;;23.85;17.08;;;6.60;47.10;;;;;;5056267;28;20198;-64
2022/03/19 01:14:53;;;;;;;29.23;18.20;;;6.60;47.20;;;;;;5056791;28;20190;-64
2022/03/19 01:17:20;;;;;;;28.45;19.00;;;6.50;47.40;;;;;;5056102;28;20655;-63
2022/03/19 01:19:53;;;;;;;27.67;18.92;;;6.50;47.50;;;;;;5055896;28;20186;-64
2022/03/19 01:22:21;;;;;;;30.25;19.88;;;6.50;47.50;;;;;;5055770;28;20218;-63
2022/03/19 01:24:48;;;;;;;26.33;18.42;;;6.50;47.50;;;;;;5056042;28;20518;-64
2022/03/19 01:27:16;;;;;;;26.90;18.52;;;6.50;47.60;;;;;;5056018;28;20190;-63
2022/03/19 01:29:43;;;;;;;28.60;20.77;;;6.50;47.80;;;;;;5056434;28;20194;-63
2022/03/19 01:32:11;;;;;;;23.92;18.00;;;6.40;47.70;;;;;;5055748;28;20522;-64
2022/03/19 01:34:38;;;;;;;27.45;19.40;;;6.40;47.90;;;;;;5055910;28;20379;-64
2022/03/19 01:37:05;;;;;;;34.65;21.58;;;6.40;48.10;;;;;;5056154;28;20193;-65
2022/03/19 01:39:32;;;;;;;23.73;18.10;;;6.30;48.00;;;;;;5055515;28;20190;-64
2022/03/19 01:41:59;;;;;;;26.30;19.48;;;6.30;48.30;;;;;;5055635;28;20210;-64
2022/03/19 01:44:28;;;;;;;25.90;19.02;;;6.30;48.10;;;;;;5055657;28;20625;-63
2022/03/19 01:46:58;;;;;;;27.25;19.40;;;6.30;48.10;;;;;;5055460;28;20190;-64
2022/03/19 01:49:26;;;;;;;26.40;19.98;;;6.30;48.30;;;;;;5055451;28;20587;-64
2022/03/19 01:51:53;;;;;;;27.10;19.33;;;6.30;48.20;;;;;;5055835;28;20422;-63
2022/03/19 01:54:26;;;;;;;26.70;19.48;;;6.30;48.10;;;;;;5055122;28;20641;-63
2022/03/19 01:56:55;;;;;;;26.90;18.48;;;6.20;48.10;;;;;;5055738;28;20239;-65
2022/03/19 01:59:24;;;;;;;26.55;19.15;;;6.20;48.10;;;;;;5053194;28;20222;-65
2022/03/19 02:01:53;;;;;;;27.13;19.92;;;6.20;48.30;;;;;;5054768;28;20218;-64
2022/03/19 02:04:21;;;;;;;28.05;19.60;;;6.20;48.40;;;;;;5054941;28;20194;-63
2022/03/19 02:06:48;;;;;;;23.67;17.95;;;6.10;48.30;;;;;;5054989;28;20195;-63
2022/03/19 02:09:15;;;;;;;26.45;18.10;;;6.20;48.60;;;;;;5055394;28;20186;-63
2022/03/19 02:11:44;;;;;;;27.60;19.80;;;6.10;48.40;;;;;;5055221;28;20244;-65
2022/03/19 02:14:11;;;;;;;30.45;19.33;;;6.10;48.60;;;;;;5054241;28;20237;-64
2022/03/19 02:16:38;;;;;;;33.17;19.45;;;6.10;48.70;;;;;;5054914;28;20183;-64
2022/03/19 02:19:07;;;;;;;26.40;19.88;;;6.00;48.80;;;;;;5055329;28;20186;-64
2022/03/19 02:21:42;;;;;;;27.98;20.00;;;6.00;48.90;;;;;;5054890;28;20642;-64
2022/03/19 02:26:58;;;;;;;28.45;18.90;;;5.90;48.70;;;;;;5028979;28;20487;-64
2022/03/19 02:29:25;;;;;;;29.02;18.83;;;5.90;48.70;;;;;;5054530;28;20240;-64
2022/03/19 02:31:55;;;;;;;26.20;18.23;;;5.90;48.80;;;;;;5054835;28;20240;-63
2022/03/19 02:34:22;;;;;;;27.90;19.05;;;5.90;49.10;;;;;;5054861;28;20218;-63
2022/03/19 02:36:49;;;;;;;28.23;19.35;;;5.90;49.20;;;;;;5054581;28;20198;-64
2022/03/19 02:39:20;;;;;;;28.08;20.08;;;5.80;49.10;;;;;;5054870;28;20191;-64
2022/03/19 02:41:53;;;;;;;29.60;19.67;;;5.80;49.20;;;;;;5054447;28;20214;-64
2022/03/19 02:44:20;;;;;;;29.02;19.40;;;5.80;49.30;;;;;;5054868;28;20182;-64
2022/03/19 02:46:49;;;;;;;26.95;19.30;;;5.80;49.30;;;;;;5054645;28;20195;-63
2022/03/19 02:49:16;;;;;;;34.22;21.05;;;5.70;49.30;;;;;;5054232;28;20186;-64
2022/03/19 02:51:44;;;;;;;28.00;19.88;;;5.60;49.40;;;;;;5054195;28;20237;-64
2022/03/19 02:54:13;;;;;;;28.42;18.48;;;5.60;49.40;;;;;;5054571;28;20190;-64
2022/03/19 02:56:42;;;;;;;27.02;18.38;;;5.60;49.70;;;;;;5054334;28;20254;-64
2022/03/19 02:59:12;;;;;;;27.65;18.25;;;5.60;49.60;;;;;;5054174;28;20190;-63
2022/03/19 03:01:40;;;;;;;25.25;17.73;;;5.50;49.70;;;;;;5054007;28;20193;-64
2022/03/19 03:04:07;;;;;;;24.77;18.08;;;5.50;49.80;;;;;;5054017;28;20190;-64
2022/03/19 03:06:36;;;;;;;28.35;20.02;;;5.40;50.20;;;;;;5054067;28;20194;-64
2022/03/19 03:09:03;;;;;;;26.20;20.20;;;5.30;49.70;;;;;;5054165;28;20193;-65
2022/03/19 03:11:31;;;;;;;26.85;19.55;;;5.30;49.70;;;;;;5054022;28;20240;-64
2022/03/19 03:14:00;;;;;;;30.05;20.20;;;5.20;49.90;;;;;;5053993;28;20190;-64
2022/03/19 03:16:27;;;;;;;28.95;18.42;;;5.20;50.00;;;;;;5054179;28;20186;-64
2022/03/19 03:18:55;;;;;;;26.63;19.58;;;5.10;50.20;;;;;;5053981;28;20285;-64
2022/03/19 03:21:22;;;;;;;25.13;18.73;;;5.10;50.20;;;;;;5054020;28;20692;-64
2022/03/19 03:23:50;;;;;;;29.48;19.80;;;5.10;50.30;;;;;;5053038;28;20276;-64
2022/03/19 03:26:17;;;;;;;31.35;21.23;;;5.10;50.50;;;;;;5053130;28;20589;-64
2022/03/19 03:28:44;;;;;;;30.63;21.75;;;5.00;50.70;;;;;;5053509;28;20217;-63
2022/03/19 03:31:12;;;;;;;26.60;18.73;;;5.00;50.80;;;;;;5053725;28;20190;-63
2022/03/19 03:33:39;;;;;;;25.08;18.00;;;4.90;51.00;;;;;;5053443;28;20564;-63
2022/03/19 03:36:06;;;;;;;29.55;20.70;;;4.90;51.00;;;;;;5053710;28;20252;-63
2022/03/19 03:38:33;;;;;;;27.33;19.50;;;4.90;51.20;;;;;;5053624;28;20191;-64
2022/03/19 03:41:01;;;;;;;33.70;21.92;;;4.90;51.20;;;;;;5053620;28;20222;-64
2022/03/19 03:43:28;;;;;;;30.35;19.55;;;4.80;51.60;;;;;;5053206;28;20210;-64
2022/03/19 03:45:55;;;;;;;29.15;20.55;;;4.80;51.60;;;;;;5053569;28;20247;-64
2022/03/19 03:48:23;;;;;;;27.95;21.05;;;4.80;51.80;;;;;;5053526;28;20198;-66
2022/03/19 03:50:53;;;;;;;38.22;21.35;;;4.80;51.80;;;;;;5053486;28;20190;-64
2022/03/19 03:53:21;;;;;;;27.85;18.20;;;4.80;51.80;;;;;;5053209;28;20575;-63
2022/03/19 03:55:48;;;;;;;31.85;20.13;;;4.80;51.50;;;;;;5053129;28;20186;-63
2022/03/19 03:58:15;;;;;;;25.27;17.92;;;4.80;51.30;;;;;;5053071;28;20191;-63
2022/03/19 04:00:42;;;;;;;27.95;20.80;;;4.70;50.70;;;;;;5053224;28;20458;-64
2022/03/19 04:03:09;;;;;;;33.08;22.10;;;4.50;50.50;;;;;;5053288;28;20272;-64
2022/03/19 04:05:37;;;;;;;32.35;23.08;;;4.50;50.80;;;;;;5053082;28;20190;-64
2022/03/19 04:08:05;;;;;;;30.52;20.40;;;4.40;50.60;;;;;;5052936;28;20190;-64
2022/03/19 04:10:33;;;;;;;35.60;20.75;;;4.30;51.10;;;;;;5053255;28;20231;-63
2022/03/19 04:13:00;;;;;;;30.70;20.55;;;4.10;51.60;;;;;;5053132;28;20304;-64
2022/03/19 04:15:27;;;;;;;29.52;19.45;;;4.00;51.60;;;;;;5053256;28;20565;-64
2022/03/19 04:17:54;;;;;;;36.15;21.70;;;3.90;52.90;;;;;;5052920;28;20503;-64
2022/03/19 04:20:22;;;;;;;31.25;21.65;;;3.90;52.70;;;;;;5052884;28;20194;-64
2022/03/19 04:22:51;;;;;;;30.50;17.75;;;3.90;52.40;;;;;;5052787;28;20218;-63
2022/03/19 04:25:20;;;;;;;29.42;19.70;;;3.80;52.50;;;;;;5053131;28;20520;-63
2022/03/19 04:27:49;;;;;;;31.13;20.92;;;3.70;52.60;;;;;;5053075;28;20247;-63
2022/03/19 04:30:18;;;;;;;29.25;19.48;;;3.70;53.30;;;;;;5053088;28;20218;-64
2022/03/19 04:32:47;;;;;;;29.35;20.63;;;3.60;53.30;;;;;;5052531;28;20240;-63
2022/03/19 04:38:02;;;;;;;33.67;20.50;;;3.50;53.00;;;;;;5052908;28;20181;-63
2022/03/19 04:40:31;;;;;;;25.90;19.02;;;3.40;53.70;;;;;;5052967;28;20226;-64
2022/03/19 04:42:58;;;;;;;27.40;19.48;;;3.40;54.30;;;;;;5052778;28;20217;-64
2022/03/19 04:45:25;;;;;;;31.50;21.02;;;3.40;54.50;;;;;;5052320;28;20194;-64
2022/03/19 04:47:53;;;;;;;30.40;19.55;;;3.40;54.60;;;;;;5052881;28;20190;-63
2022/03/19 04:50:20;;;;;;;29.77;19.60;;;3.30;54.50;;;;;;5052890;28;20190;-63
2022/03/19 04:52:48;;;;;;;31.55;19.80;;;3.20;54.70;;;;;;5052754;28;20657;-63
2022/03/19 04:55:16;;;;;;;29.17;18.85;;;3.20;54.70;;;;;;5052734;28;20236;-63
2022/03/19 04:57:44;;;;;;;35.22;21.58;;;3.20;54.80;;;;;;5052699;28;20951;-63
2022/03/19 05:00:13;;;;;;;28.27;20.45;;;3.20;55.30;;;;;;5052773;28;20222;-63
2022/03/19 05:02:40;;;;;;;33.92;21.75;;;3.10;55.50;;;;;;5052613;28;20206;-64
2022/03/19 05:05:08;;;;;;;34.22;21.75;;;3.10;55.50;;;;;;5052548;28;20633;-63
2022/03/19 05:07:35;;;;;;;26.90;20.02;;;3.00;55.50;;;;;;5052393;28;20264;-63
2022/03/19 05:12:48;;;;;;;29.95;19.17;;;2.90;55.90;;;;;;5052624;28;20676;-63
2022/03/19 05:15:17;;;;;;;30.20;19.20;;;2.90;56.10;;;;;;5052665;28;20248;-63
2022/03/19 05:17:45;;;;;;;31.38;20.05;;;2.90;56.30;;;;;;5052110;28;20240;-63
2022/03/19 05:20:14;;;;;;;25.92;18.48;;;2.80;56.30;;;;;;5052634;28;20260;-64
2022/03/19 05:22:41;;;;;;;31.10;18.88;;;2.80;56.30;;;;;;5051958;28;20214;-64
2022/03/19 05:25:08;;;;;;;35.20;20.23;;;2.80;56.00;;;;;;5052525;28;20190;-64
2022/03/19 05:27:37;;;;;;;31.02;19.80;;;2.80;55.80;;;;;;5052305;28;20256;-63
2022/03/19 05:30:07;;;;;;;35.13;21.17;;;2.80;56.00;;;;;;5052294;28;20186;-64
2022/03/19 05:32:34;;;;;;;30.42;19.88;;;2.80;56.70;;;;;;5052197;28;20194;-64
2022/03/19 05:35:02;;;;;;;29.05;19.70;;;2.80;56.30;;;;;;5052449;28;20641;-64
2022/03/19 05:37:30;;;;;;;32.03;19.45;;;2.80;56.40;;;;;;5052164;28;20194;-64
2022/03/19 05:39:57;;;;;;;32.25;20.80;;;2.80;56.80;;;;;;5052440;28;20182;-63
2022/03/19 05:42:24;;;;;;;30.35;18.75;;;2.90;57.00;;;;;;5052025;28;20186;-64
2022/03/19 05:44:51;;;;;;;28.00;20.17;;;2.90;56.30;;;;;;5052437;28;20197;-65
2022/03/19 05:47:20;;;;;;;39.67;25.75;;;2.90;56.20;;;;;;5052284;28;20190;-63
2022/03/19 05:49:47;;;;;;;43.08;26.65;;;2.90;56.50;;;;;;5055557;28;20197;-64
2022/03/19 05:52:14;;;;;;;35.47;23.90;;;2.90;57.20;;;;;;5055704;28;20223;-63
2022/03/19 05:54:41;;;;;;;31.27;20.75;;;3.00;57.60;;;;;;5055634;28;20186;-64
2022/03/19 05:57:08;;;;;;;30.08;18.98;;;3.00;57.10;;;;;;5055710;28;20190;-63
2022/03/19 05:59:35;;;;;;;31.15;19.20;;;3.00;57.20;;;;;;5055549;28;20236;-64
2022/03/19 06:02:02;;;;;;;28.65;21.17;;;3.00;57.30;;;;;;5055598;28;20252;-64
2022/03/19 06:04:31;;;;;;;26.73;17.65;;;3.10;57.30;;;;;;5055239;28;20626;-64
2022/03/19 06:06:58;;;;;;;27.38;19.60;;;3.00;56.60;;;;;;5055560;28;20260;-63
2022/03/19 06:09:24;;;;;;;31.50;21.45;;;3.00;56.70;;;;;;5055293;28;20195;-65
2022/03/19 06:11:51;;;;;;;30.55;20.17;;;2.90;56.50;;;;;;5055335;28;20186;-64
2022/03/19 06:14:18;;;;;;;29.67;20.60;;;3.00;57.00;;;;;;5055404;28;20198;-63
2022/03/19 06:16:46;;;;;;;32.58;21.50;;;3.00;57.30;;;;;;5055445;28;20190;-63
2022/03/19 06:19:13;;;;;;;32.03;21.27;;;3.00;57.80;;;;;;5054913;28;20212;-63
2022/03/19 06:21:42;;;;;;;29.92;20.00;;;3.10;58.20;;;;;;5055242;28;20228;-63
2022/03/19 06:24:09;;;;;;;34.47;23.30;;;3.20;58.40;;;;;;5054906;28;20215;-63
2022/03/19 06:26:37;;;;;;;37.70;22.30;;;3.40;58.90;;;;;;5055170;28;20281;-64
2022/03/19 06:29:04;;;;;;;41.60;24.55;;;3.50;59.30;;;;;;5055025;28;20182;-64
2022/03/19 06:31:31;;;;;;;31.27;21.20;;;3.60;58.70;;;;;;5055157;28;20190;-63
2022/03/19 06:33:58;;;;;;;33.55;21.13;;;3.70;59.00;;;;;;5054481;28;20260;-63
2022/03/19 06:39:12;;;;;;;32.55;24.17;;;4.00;58.60;;;;;;5054820;28;20190;-63
2022/03/19 06:41:39;;;;;;;31.77;22.15;;;4.10;58.80;;;;;;5054925;28;20683;-63
2022/03/19 06:44:06;;;;;;;34.17;23.90;;;4.30;58.80;;;;;;5054827;28;20688;-64
2022/03/19 06:46:33;;;;;;;34.60;24.40;;;4.50;58.90;;;;;;5054750;28;20187;-64
2022/03/19 06:49:00;;;;;;;36.03;24.00;;;4.70;58.60;;;;;;5064553;28;20247;-63
2022/03/19 06:51:27;;;;;;;30.58;24.17;;;4.90;58.30;;;;;;5051954;28;20256;-63
2022/03/19 06:53:54;;;;;;;36.75;23.55;;;5.10;58.00;;;;;;5051682;28;20582;-64
2022/03/19 06:56:23;;;;;;;32.03;21.88;;;5.50;58.10;;;;;;5055529;28;20191;-63
2022/03/19 06:58:50;;;;;;;31.13;22.90;;;5.80;57.50;;;;;;5052824;28;20202;-63
2022/03/19 07:01:16;;;;;;;36.72;24.63;;;6.20;57.40;;;;;;5052030;28;20198;-64
2022/03/19 07:03:48;;;;;;;35.20;24.48;;;6.70;56.50;;;;;;5051988;28;20214;-65
2022/03/19 07:06:16;;;;;;;38.08;23.10;;;7.30;57.10;;;;;;5052235;28;20586;-64
2022/03/19 07:08:43;;;;;;;35.92;26.73;;;7.90;54.80;;;;;;5052856;28;20263;-65
2022/03/19 07:11:10;;;;;;;34.15;23.50;;;8.60;55.40;;;;;;5052138;28;20182;-65
2022/03/19 07:13:39;;;;;;;34.78;25.95;;;9.50;54.90;;;;;;5052684;28;20217;-64
2022/03/19 07:16:12;;;;;;;35.13;25.25;;;10.60;50.00;;;;;;5051985;28;20195;-65
2022/03/19 07:18:39;;;;;;;35.85;27.65;;;11.80;48.70;;;;;;5052268;28;20547;-65
2022/03/19 07:21:06;;;;;;;28.75;22.52;;;13.40;45.70;;;;;;5047754;28;20186;-65
2022/03/19 07:23:33;;;;;;;34.65;26.65;;;14.90;42.20;;;;;;5052278;28;20250;-66
2022/03/19 07:26:01;;;;;;;33.90;26.90;;;16.30;39.20;;;;;;5051995;28;20186;-65
2022/03/19 07:28:29;;;;;;;27.75;22.10;;;17.40;36.40;;;;;;5051615;28;20191;-66
2022/03/19 07:30:57;;;;;;;28.40;23.13;;;18.50;32.70;;;;;;5052345;28;20190;-65
2022/03/19 07:33:26;;;;;;;31.47;26.20;;;19.50;31.80;;;;;;5052140;28;20467;-67
2022/03/19 07:35:53;;;;;;;30.50;26.20;;;20.50;30.60;;;;;;5052550;28;20429;-65
2022/03/19 07:38:20;;;;;;;32.57;24.67;;;21.50;28.20;;;;;;5051866;28;20437;-66
2022/03/19 07:43:31;;;;;;;30.53;26.80;;;23.30;25.80;;;;;;5051706;28;20637;-66
2022/03/19 07:46:00;;;;;;;30.93;27.60;;;24.20;25.20;;;;;;5052046;28;20443;-66
2022/03/19 07:48:27;;;;;;;32.60;27.30;;;25.00;23.70;;;;;;5051852;28;20480;-64
2022/03/19 07:50:54;;;;;;;31.17;27.77;;;25.80;22.70;;;;;;5051217;28;20499;-67
2022/03/19 07:53:21;;;;;;;36.83;28.47;;;26.60;22.00;;;;;;5051950;28;20440;-64
2022/03/19 07:55:50;;;;;;;30.70;27.50;;;27.30;20.60;;;;;;5051865;28;20491;-65
2022/03/19 07:58:17;;;;;;;31.70;28.40;;;27.70;19.60;;;;;;5050523;28;20460;-67
2022/03/19 08:00:44;;;;;;;31.30;28.07;;;28.30;19.00;;;;;;5049803;28;20446;-65
2022/03/19 08:03:12;;;;;;;32.87;29.50;;;28.80;18.30;;;;;;5050826;28;20437;-64
2022/03/19 08:05:41;;;;;;;31.47;28.40;;;29.40;18.70;;;;;;5051720;28;20933;-64
2022/03/19 08:08:11;;;;;;;31.67;28.37;;;30.10;17.10;;;;;;5051537;28;20442;-64
2022/03/19 08:10:39;;;;;;;33.50;29.20;;;30.60;17.30;;;;;;5047752;28;20444;-65
2022/03/19 08:13:08;;;;;;;30.87;27.80;;;31.20;16.70;;;;;;5049655;28;20506;-65
2022/03/19 08:15:37;;;;;;;30.00;26.97;;;31.60;15.80;;;;;;5050973;28;20499;-65
2022/03/19 08:18:05;;;;;;;37.53;30.30;;;32.10;15.90;;;;;;5050943;28;20877;-64
2022/03/19 08:20:35;;;;;;;31.27;28.17;;;32.30;14.40;;;;;;5049557;28;20452;-70
2022/03/19 08:23:02;;;;;;;32.27;28.97;;;32.60;14.80;;;;;;5049739;28;20444;-65
2022/03/19 08:25:29;;;;;;;29.33;26.57;;;33.20;14.50;;;;;;5050825;28;20540;-66
2022/03/19 08:27:57;;;;;;;35.50;29.57;;;33.80;13.90;;;;;;5051322;28;20440;-64
2022/03/19 08:30:24;;;;;;;29.80;27.10;;;34.30;13.20;;;;;;5051468;28;20452;-64
2022/03/19 08:32:51;;;;;;;31.57;28.73;;;34.80;13.60;;;;;;5051100;28;20463;-64
2022/03/19 08:35:18;;;;;;;31.60;28.60;;;35.30;12.50;;;;;;5050747;28;20498;-65
2022/03/19 08:37:47;;;;;;;31.30;28.40;;;35.90;12.20;;;;;;5051385;28;20429;-64
2022/03/19 08:40:16;;;;;;;33.13;30.20;;;36.60;12.20;;;;;;5050949;28;20445;-65
2022/03/19 08:42:44;;;;;;;31.53;28.70;;;37.00;11.20;;;;;;5051793;28;20847;-64
2022/03/19 08:45:11;;;;;;;31.53;28.53;;;37.30;10.60;;;;;;5058870;28;20570;-64
2022/03/19 08:47:38;;;;;;;31.17;28.43;;;37.50;10.90;;;;;;5072361;28;20440;-64
2022/03/19 08:50:07;;;;;;;32.90;29.87;;;38.00;10.00;;;;;;5072456;28;20489;-64
2022/03/19 08:52:34;;;;;;;31.30;28.37;;;38.40;10.40;;;;;;5072433;28;20435;-64
2022/03/19 08:55:04;;;;;;;32.77;29.83;;;38.70;9.40;;;;;;5072181;28;20518;-64
2022/03/19 08:57:31;;;;;;;31.80;28.80;;;38.60;8.50;;;;;;5072344;28;20860;-64
2022/03/19 08:59:58;;;;;;;30.20;27.30;;;38.30;9.90;;;;;;5072647;28;20441;-64
2022/03/19 09:02:25;;;;;;;31.23;28.53;;;38.70;9.60;;;;;;5072293;28;20444;-65
2022/03/19 09:04:52;;;;;;;32.67;29.77;;;39.30;9.40;;;;;;5072260;28;20440;-64
2022/03/19 09:07:19;;;;;;;31.43;28.70;;;39.80;8.70;;;;;;5072400;28;20436;-64
2022/03/19 09:09:52;;;;;;;30.07;27.47;;;39.90;8.20;;;;;;5072339;28;20432;-64
2022/03/19 09:12:22;;;;;;;31.47;28.57;;;40.10;8.10;;;;;;5072299;28;20785;-64
2022/03/19 09:14:49;;;;;;;32.67;30.00;;;40.10;7.60;;;;;;5072070;28;20482;-64
2022/03/19 09:17:16;;;;;;;30.60;27.90;;;40.20;8.00;;;;;;5072223;28;21012;-64
2022/03/19 09:19:43;;;;;;;31.40;28.70;;;40.40;8.10;;;;;;5072247;28;20467;-64
2022/03/19 09:22:10;;;;;;;30.83;27.97;;;40.80;8.20;;;;;;5072144;28;20444;-64
2022/03/19 09:24:37;;;;;;;29.93;27.20;;;41.10;8.10;;;;;;5075786;28;20436;-64
2022/03/19 09:27:05;;;;;;;31.67;29.03;;;41.50;8.00;;;;;;5075836;28;20479;-65
2022/03/19 09:29:33;;;;;;;31.27;28.67;;;41.90;7.80;;;;;;5075953;28;20432;-66
2022/03/19 09:32:00;;;;;;;31.73;28.83;;;42.40;8.00;;;;;;5075990;28;20772;-64
2022/03/19 09:34:27;;;;;;;31.30;28.67;;;42.70;7.20;;;;;;5076175;28;20524;-64
2022/03/19 09:36:54;;;;;;;33.13;30.23;;;42.90;7.40;;;;;;5076113;28;20431;-66
2022/03/19 09:39:21;;;;;;;30.13;27.77;;;43.10;6.90;;;;;;5075721;28;20440;-64
2022/03/19 09:41:48;;;;;;;30.47;27.97;;;43.50;6.70;;;;;;5075481;28;20505;-64
2022/03/19 09:44:40;;;;;;;31.37;28.77;;;43.80;6.10;;;;;;5075592;28;20839;-64
2022/03/19 09:47:09;;;;;;;33.90;31.00;;;43.30;5.60;;;;;;5075511;28;20792;-65
2022/03/19 09:49:36;;;;;;;31.87;29.07;;;42.30;5.80;;;;;;5075519;28;20448;-65
2022/03/19 09:52:05;;;;;;;33.57;30.67;;;42.20;6.60;;;;;;5075584;28;20439;-64
2022/03/19 09:54:32;;;;;;;31.87;29.20;;;42.30;6.60;;;;;;5075365;28;20490;-65
2022/03/19 09:56:59;;;;;;;30.53;27.97;;;42.70;6.10;;;;;;5075426;28;20447;-64
2022/03/19 09:59:27;;;;;;;34.40;31.30;;;42.70;6.90;;;;;;5075324;28;20440;-65
2022/03/19 10:01:54;;;;;;;34.07;31.10;;;43.10;6.60;;;;;;5075779;28;20853;-64
2022/03/19 10:04:22;;;;;;;34.13;31.13;;;43.40;6.10;;;;;;5075277;28;20486;-64
2022/03/19 10:09:45;;;;;;;33.73;30.83;;;44.20;6.10;;;;;;5075238;28;20782;-65
2022/03/19 10:12:14;;;;;;;32.90;29.87;;;44.60;6.40;;;;;;5075496;28;20485;-65
2022/03/19 10:14:41;;;;;;;32.93;30.10;;;44.50;5.70;;;;;;5075241;28;20519;-65
2022/03/19 10:17:08;;;;;;;32.23;29.50;;;44.90;6.40;;;;;;5075165;28;20436;-67
2022/03/19 10:19:52;;;;;;;33.27;30.47;;;45.00;5.30;;;;;;5075160;28;20440;-65
2022/03/19 10:22:26;;;;;;;35.07;32.07;;;44.70;6.00;;;;;;5075328;28;20432;-64
2022/03/19 10:25:01;;;;;;;33.30;30.50;;;45.00;5.10;;;;;;5075342;28;20941;-64
2022/03/19 10:27:35;;;;;;;34.10;31.30;;;44.80;6.00;;;;;;5075029;28;20435;-65
2022/03/19 10:30:08;;;;;;;35.17;32.17;;;44.90;5.70;;;;;;5074880;28;20447;-65
2022/03/19 10:32:35;;;;;;;36.13;33.03;;;45.20;5.50;;;;;;5074696;28;20553;-64
2022/03/19 10:35:07;;;;;;;31.67;28.97;;;45.40;4.90;;;;;;5074252;28;20522;-65
2022/03/19 10:37:39;;;;;;;34.73;31.97;;;44.80;5.30;;;;;;5074712;28;20428;-64
2022/03/19 10:40:10;;;;;;;34.67;31.83;;;44.90;5.80;;;;;;5074771;28;20466;-65
2022/03/19 10:42:38;;;;;;;58.87;33.23;;;45.10;5.50;;;;;;5074865;28;20485;-65
2022/03/19 10:45:08;;;;;;;33.57;30.73;;;44.90;5.40;;;;;;5074583;28;21040;-65
2022/03/19 10:47:42;;;;;;;32.33;29.53;;;44.90;4.90;;;;;;5074387;28;20440;-64
2022/03/19 10:50:12;;;;;;;34.20;31.30;;;44.70;5.10;;;;;;5074549;28;20431;-65
2022/03/19 10:52:40;;;;;;;33.17;30.37;;;45.00;5.60;;;;;;5074573;28;20440;-65
2022/03/19 10:55:08;;;;;;;33.10;30.23;;;45.10;5.00;;;;;;5074364;28;20492;-64
2022/03/19 10:57:36;;;;;;;35.30;32.43;;;44.70;4.60;;;;;;5074440;28;20485;-64
2022/03/19 11:00:05;;;;;;;35.33;31.93;;;42.00;5.00;;;;;;5074383;28;20543;-65
2022/03/19 11:02:33;;;;;;;35.17;32.20;;;41.00;6.20;;;;;;5074288;28;20923;-65
2022/03/19 11:05:02;;;;;;;33.10;30.50;;;41.70;6.20;;;;;;5074238;28;20467;-64
2022/03/19 11:07:34;;;;;;;36.10;32.80;;;42.70;6.80;;;;;;5074262;28;20436;-64
2022/03/19 11:10:05;;;;;;;33.90;30.83;;;43.00;5.80;;;;;;5074300;28;20437;-64
2022/03/19 11:12:34;;;;;;;34.40;31.47;;;43.70;5.80;;;;;;5074056;28;20435;-64
2022/03/19 11:15:05;;;;;;;35.43;32.43;;;44.20;5.00;;;;;;5073959;28;20488;-65
2022/03/19 11:17:33;;;;;;;32.67;29.93;;;44.00;5.20;;;;;;5074107;28;20432;-64
2022/03/19 11:20:02;;;;;;;32.47;29.93;;;44.10;5.50;;;;;;5073947;28;20501;-64
2022/03/19 11:22:39;;;;;;;33.90;31.10;;;44.40;5.20;;;;;;5073909;28;20945;-65
2022/03/19 11:25:11;;;;;;;31.13;28.63;;;44.50;5.10;;;;;;5073942;28;20439;-65
2022/03/19 11:27:41;;;;;;;31.73;28.90;;;44.60;4.80;;;;;;5074020;28;20444;-64
2022/03/19 11:30:19;;;;;;;34.30;31.50;;;44.20;5.00;;;;;;5073817;28;20478;-64
2022/03/19 11:33:06;;;;;;;33.33;30.53;;;42.00;4.20;;;;;;5073639;28;20447;-64
2022/03/19 11:35:34;;;;;;;33.47;30.63;;;40.00;5.90;;;;;;5073708;28;20873;-65
2022/03/19 11:38:05;;;;;;;33.77;31.03;;;40.40;6.00;;;;;;5073667;28;20497;-64
2022/03/19 11:40:35;;;;;;;31.10;28.40;;;41.10;5.90;;;;;;5073338;28;20440;-64
2022/03/19 11:43:04;;;;;;;31.77;28.77;;;41.40;5.90;;;;;;5073735;28;20442;-64
2022/03/19 11:45:54;;;;;;;31.03;28.53;;;41.70;6.00;;;;;;5072922;28;20444;-64
2022/03/19 11:48:54;;;;;;;31.60;28.87;;;42.50;5.60;;;;;;5073463;28;20440;-64
2022/03/19 11:51:36;;;;;;;30.93;28.33;;;42.80;5.80;;;;;;5073618;28;21007;-64
2022/03/19 11:54:06;;;;;;;33.60;30.97;;;43.00;5.50;;;;;;5073299;28;20432;-65
2022/03/19 11:57:05;;;;;;;31.20;28.40;;;42.40;4.60;;;;;;5073031;28;20487;-64
2022/03/19 11:59:43;;;;;;;30.20;27.70;;;41.90;5.40;;;;;;5011349;28;20446;-65
2022/03/19 12:02:12;;;;;;;32.23;29.07;;;42.20;5.50;;;;;;5064435;28;20464;-64
2022/03/19 12:04:45;;;;;;;31.33;28.70;;;39.90;4.90;;;;;;5073381;28;20791;-64
2022/03/19 12:07:12;;;;;;;32.20;29.50;;;37.90;6.30;;;;;;5073115;28;20432;-64
2022/03/19 12:10:01;;;;;;;31.43;28.70;;;38.10;6.80;;;;;;5073160;28;20482;-64
2022/03/19 12:12:28;;;;;;;31.40;28.70;;;39.10;7.00;;;;;;5072896;28;20436;-64
2022/03/19 12:14:57;;;;;;;32.47;29.20;;;39.90;6.10;;;;;;5073330;28;20805;-65
2022/03/19 12:17:31;;;;;;;29.57;27.23;;;40.60;6.40;;;;;;5073116;28;20932;-64
2022/03/19 12:20:01;;;;;;;30.47;27.87;;;41.00;6.10;;;;;;5073092;28;20497;-64
2022/03/19 12:22:33;;;;;;;30.80;27.90;;;40.90;5.50;;;;;;5073032;28;20852;-64
2022/03/19 12:25:14;;;;;;;31.00;28.30;;;41.00;5.50;;;;;;5072927;28;20432;-65
2022/03/19 12:27:42;;;;;;;31.53;28.83;;;40.70;5.10;;;;;;5073023;28;20478;-64
2022/03/19 12:30:10;;;;;;;28.83;26.40;;;40.70;5.50;;;;;;5072820;28;20444;-64
2022/03/19 12:32:49;;;;;;;30.40;27.80;;;39.30;5.00;;;;;;5072396;28;20431;-64
2022/03/19 12:35:17;;;;;;;28.37;25.63;;;38.40;5.50;;;;;;5072736;28;20532;-64
2022/03/19 12:37:48;;;;;;;27.93;25.50;;;38.70;6.10;;;;;;5072711;28;20446;-65
2022/03/19 12:40:23;;;;;;;29.00;26.50;;;39.10;5.60;;;;;;5072961;28;20432;-64
2022/03/19 12:42:55;;;;;;;27.13;24.67;;;38.50;5.50;;;;;;5072629;28;20428;-64
2022/03/19 12:45:37;;;;;;;28.20;25.60;;;37.00;5.40;;;;;;5072555;28;20489;-64
2022/03/19 12:48:10;;;;;;;28.10;25.33;;;34.30;5.40;;;;;;5072753;28;20867;-63
2022/03/19 12:50:37;;;;;;;24.60;22.30;;;32.70;6.50;;;;;;5072618;28;20444;-63
2022/03/19 12:53:04;;;;;;;24.50;22.27;;;32.70;6.70;;;;;;5072413;28;20468;-63
2022/03/19 12:55:32;;;;;;;26.77;24.20;;;33.50;7.40;;;;;;5072409;28;20515;-63
2022/03/19 12:58:01;;;;;;;23.13;21.03;;;34.40;6.80;;;;;;5075308;28;20847;-64
2022/03/19 13:00:28;;;;;;;24.03;21.83;;;35.30;7.20;;;;;;5076603;28;20443;-63